Time;durP1;ratioP1;P1;durP2;ratioP2;P2;SDS_P1;SDS_P2;PMS_P1;PMS_P2;Temp;Humidity;BMP_temperature;BMP_pressure;BME280_temperature;BME280_humidity;BME280_pressure;Samples;Min_cycle;Max_cycle;Signal;HPM_P1;HPM_P2
2022/09/28 00:00:50;;;;;;;28.83;23.23;;;;;;;6.49;100.00;99570.53;5340511;27;20027;-81
2022/09/28 00:03:21;;;;;;;35.13;24.45;;;;;;;6.39;100.00;99563.44;5339208;27;20027;-80
2022/09/28 00:05:52;;;;;;;31.98;24.13;;;;;;;6.43;100.00;99571.91;5339239;27;20382;-80
2022/09/28 00:08:24;;;;;;;36.28;24.35;;;;;;;6.40;100.00;99585.47;5344428;27;20115;-80
2022/09/28 00:10:56;;;;;;;32.42;24.20;;;;;;;6.53;100.00;99579.84;5340922;27;20054;-81
2022/09/28 00:13:28;;;;;;;34.40;25.52;;;;;;;6.56;100.00;99575.06;5327143;27;20073;-80
2022/09/28 00:16:05;;;;;;;37.78;27.08;;;;;;;6.53;100.00;99574.53;5343608;27;20036;-80
2022/09/28 00:18:37;;;;;;;33.47;25.98;;;;;;;6.67;100.00;99567.91;5339997;27;20030;-80
2022/09/28 00:21:16;;;;;;;40.97;27.85;;;;;;;6.63;100.00;99567.38;5342505;27;20035;-81
2022/09/28 00:26:48;;;;;;;38.58;29.85;;;;;;;6.74;100.00;99563.69;5340475;27;20031;-80
2022/09/28 00:29:26;;;;;;;39.70;28.98;;;;;;;6.72;100.00;99557.69;5322737;27;20096;-80
2022/09/28 00:32:03;;;;;;;42.47;28.75;;;;;;;6.67;100.00;99555.47;5341309;27;20032;-80
2022/09/28 00:34:41;;;;;;;34.45;28.17;;;;;;;6.72;100.00;99561.16;5341646;27;20043;-80
2022/09/28 00:37:13;;;;;;;42.67;29.90;;;;;;;6.75;100.00;99555.59;5340802;27;20023;-81
2022/09/28 00:39:45;;;;;;;40.95;29.55;;;;;;;6.72;100.00;99557.69;5339741;27;20023;-80
2022/09/28 00:42:19;;;;;;;36.72;27.70;;;;;;;6.78;100.00;99535.88;5341086;27;20110;-81
2022/09/28 00:44:52;;;;;;;40.88;29.20;;;;;;;6.72;100.00;99553.22;5342157;27;20023;-81
2022/09/28 00:47:32;;;;;;;38.50;28.40;;;;;;;6.74;100.00;99545.13;5336881;27;20020;-80
2022/09/28 00:50:24;;;;;;;36.17;27.45;;;;;;;6.66;100.00;99545.03;5339546;27;20032;-80
2022/09/28 00:53:10;;;;;;;33.75;27.58;;;;;;;6.60;100.00;99535.88;5345090;27;20110;-80
2022/09/28 00:55:47;;;;;;;33.85;26.70;;;;;;;6.63;100.00;99536.41;5323136;27;20027;-82
2022/09/28 00:58:23;;;;;;;41.40;28.38;;;;;;;6.72;100.00;99528.53;5323725;27;20416;-80
2022/09/28 01:00:57;;;;;;;40.63;29.10;;;;;;;6.85;100.00;99536.13;5323248;27;20439;-80
2022/09/28 01:03:29;;;;;;;41.28;30.27;;;;;;;6.74;100.00;99527.41;5337207;27;20066;-80
2022/09/28 01:06:03;;;;;;;39.65;29.48;;;;;;;6.79;100.00;99526.97;5340460;27;20115;-80
2022/09/28 01:08:35;;;;;;;40.58;29.63;;;;;;;6.90;100.00;99531.22;5321989;27;20880;-80
2022/09/28 01:11:07;;;;;;;41.95;30.92;;;;;;;6.91;100.00;99530.25;5341021;27;20012;-80
2022/09/28 01:13:40;;;;;;;37.00;31.05;;;;;;;6.96;100.00;99526.13;5342872;27;20072;-80
2022/09/28 01:16:11;;;;;;;55.05;34.05;;;;;;;6.81;100.00;99535.59;5346142;27;20024;-80
2022/09/28 01:18:58;;;;;;;46.33;31.90;;;;;;;6.86;100.00;99532.50;5338703;27;20031;-80
2022/09/28 01:21:41;;;;;;;54.63;31.70;;;;;;;6.80;100.00;99542.72;5341286;27;20169;-81
2022/09/28 01:24:37;;;;;;;42.70;31.10;;;;;;;6.80;100.00;99533.91;5339048;27;20991;-81
2022/09/28 01:27:29;;;;;;;42.58;32.08;;;;;;;6.81;100.00;99547.00;5337053;27;20441;-80
2022/09/28 01:30:10;;;;;;;40.47;29.27;;;;;;;6.99;100.00;99535.59;5339764;27;20073;-81
2022/09/28 01:32:54;;;;;;;50.30;34.03;;;;;;;6.85;100.00;99536.94;5337312;27;20023;-81
2022/09/28 01:35:35;;;;;;;42.63;34.42;;;;;;;6.90;100.00;99536.50;5341176;27;20545;-81
2022/09/28 01:38:16;;;;;;;48.70;33.83;;;;;;;6.91;100.00;99536.38;5321892;27;20059;-81
2022/09/28 01:40:49;;;;;;;44.50;32.17;;;;;;;7.11;100.00;99537.03;5320902;27;20150;-81
2022/09/28 01:43:25;;;;;;;54.22;37.08;;;;;;;6.76;100.00;99543.16;5340112;27;20028;-81
2022/09/28 01:46:03;;;;;;;58.42;36.72;;;;;;;6.81;100.00;99552.31;5321002;27;20051;-81
2022/09/28 01:48:40;;;;;;;61.42;36.67;;;;;;;6.88;100.00;99554.38;5340894;27;20080;-80
2022/09/28 01:51:23;;;;;;;47.13;35.83;;;;;;;6.91;100.00;99546.97;5339316;27;20031;-80
2022/09/28 01:54:00;;;;;;;59.55;39.17;;;;;;;6.93;100.00;99545.00;5341683;27;20028;-81
2022/09/28 01:56:44;;;;;;;55.45;39.47;;;;;;;6.95;100.00;99548.31;5338752;27;20099;-81
2022/09/28 01:59:21;;;;;;;63.97;39.17;;;;;;;6.93;100.00;99552.94;5342725;27;20070;-80
2022/09/28 02:02:04;;;;;;;57.90;38.88;;;;;;;7.04;100.00;99546.59;5341874;27;20532;-81
2022/09/28 02:04:47;;;;;;;62.25;39.67;;;;;;;7.03;100.00;99542.28;5340845;27;20501;-80
2022/09/28 02:07:37;;;;;;;57.70;37.50;;;;;;;7.05;100.00;99542.97;5344074;27;20099;-80
2022/09/28 02:10:18;;;;;;;50.47;34.85;;;;;;;7.07;100.00;99543.63;5332640;27;20040;-80
2022/09/28 02:12:52;;;;;;;52.38;34.50;;;;;;;7.11;100.00;99542.34;5339738;27;20128;-80
2022/09/28 02:15:39;;;;;;;44.78;33.33;;;;;;;7.11;100.00;99538.88;5346201;27;20047;-80
2022/09/28 02:18:10;;;;;;;42.28;30.98;;;;;;;6.98;100.00;99545.38;5342921;27;20127;-80
2022/09/28 02:20:50;;;;;;;38.90;28.50;;;;;;;6.94;100.00;99537.88;5342965;27;20019;-80
2022/09/28 02:23:23;;;;;;;38.70;26.77;;;;;;;6.79;100.00;99543.69;5342586;27;20504;-80
2022/09/28 02:26:02;;;;;;;34.00;25.98;;;;;;;6.79;100.00;99540.22;5344482;27;20214;-80
2022/09/28 02:28:33;;;;;;;34.28;24.60;;;;;;;6.64;100.00;99537.22;5341999;27;20080;-80
2022/09/28 02:31:05;;;;;;;34.20;24.15;;;;;;;6.55;100.00;99541.59;5340997;27;20805;-80
2022/09/28 02:33:39;;;;;;;30.55;23.08;;;;;;;6.56;100.00;99534.50;5340890;27;20385;-80
2022/09/28 02:36:11;;;;;;;30.00;21.67;;;;;;;6.46;100.00;99542.50;5344486;27;20024;-80
2022/09/28 02:38:42;;;;;;;35.67;23.13;;;;;;;6.34;100.00;99536.56;5342177;27;20038;-80
2022/09/28 02:41:22;;;;;;;26.80;21.77;;;;;;;6.50;100.00;99538.56;5342063;27;20039;-80
2022/09/28 02:44:09;;;;;;;31.10;21.63;;;;;;;6.38;100.00;99539.75;5338165;27;20031;-80
2022/09/28 02:47:09;;;;;;;27.70;21.20;;;;;;;6.38;100.00;99539.75;5341588;27;20102;-80
2022/09/28 02:49:56;;;;;;;26.20;20.50;;;;;;;6.34;100.00;99539.19;5313352;27;20072;-80
2022/09/28 02:52:56;;;;;;;26.77;19.65;;;;;;;6.27;100.00;99535.47;5346113;27;20015;-80
2022/09/28 02:56:16;;;;;;;31.73;19.63;;;;;;;6.20;100.00;99543.16;5331840;27;20024;-81
2022/09/28 02:59:01;;;;;;;33.75;19.88;;;;;;;6.15;100.00;99542.75;5341062;27;20474;-80
2022/09/28 03:01:39;;;;;;;26.08;18.10;;;;;;;6.23;100.00;99548.19;5342486;27;20069;-80
2022/09/28 03:04:28;;;;;;;23.05;17.85;;;;;;;6.25;100.00;99545.38;5340832;27;20565;-80
2022/09/28 03:07:05;;;;;;;27.10;18.98;;;;;;;6.20;100.00;99551.09;5339853;27;20043;-80
2022/09/28 03:09:42;;;;;;;29.60;18.85;;;;;;;6.28;100.00;99538.97;5340473;27;20020;-80
2022/09/28 03:12:17;;;;;;;31.23;19.08;;;;;;;6.24;100.00;99547.22;5344191;27;20036;-80
2022/09/28 03:15:24;;;;;;;25.27;18.10;;;;;;;6.37;100.00;99548.69;5346228;27;20030;-80
2022/09/28 03:17:57;;;;;;;25.00;16.87;;;;;;;6.41;100.00;99547.41;5337366;27;20436;-80
2022/09/28 03:20:30;;;;;;;25.08;16.98;;;;;;;6.46;100.00;99550.44;5337738;27;20073;-80
2022/09/28 03:23:02;;;;;;;27.92;17.15;;;;;;;6.38;100.00;99543.25;5340188;27;20481;-81
2022/09/28 03:25:33;;;;;;;24.27;15.85;;;;;;;6.48;100.00;99551.13;5343676;27;20027;-81
2022/09/28 03:28:04;;;;;;;17.98;14.30;;;;;;;6.51;100.00;99548.19;5342265;27;20051;-80
2022/09/28 03:30:35;;;;;;;21.42;13.82;;;;;;;6.41;100.00;99539.44;5341252;27;20046;-80
2022/09/28 03:33:07;;;;;;;22.60;14.70;;;;;;;6.39;100.00;99550.19;5341013;27;20031;-80
2022/09/28 03:35:38;;;;;;;17.88;13.27;;;;;;;6.44;100.00;99545.28;5342832;27;20571;-80
2022/09/28 03:38:10;;;;;;;16.77;12.85;;;;;;;6.53;100.00;99545.41;5341957;27;20032;-80
2022/09/28 03:40:41;;;;;;;17.00;12.98;;;;;;;6.41;100.00;99552.69;5339153;27;20081;-80
2022/09/28 03:43:13;;;;;;;15.10;11.98;;;;;;;6.40;100.00;99551.88;5341852;27;20032;-80
2022/09/28 03:45:54;;;;;;;20.05;12.25;;;;;;;6.40;100.00;99549.22;5342577;27;20677;-80
2022/09/28 03:48:31;;;;;;;18.38;12.70;;;;;;;6.35;100.00;99555.94;5338034;27;20034;-80
2022/09/28 03:51:08;;;;;;;16.98;11.88;;;;;;;6.31;100.00;99549.25;5341734;27;20023;-80
2022/09/28 03:53:39;;;;;;;19.15;11.98;;;;;;;6.40;100.00;99559.00;5335695;27;20027;-80
2022/09/28 03:56:13;;;;;;;16.05;11.70;;;;;;;6.41;100.00;99556.16;5339445;27;20024;-80
2022/09/28 03:58:44;;;;;;;15.80;11.50;;;;;;;6.33;100.00;99553.44;5340943;27;20036;-80
2022/09/28 04:01:16;;;;;;;17.48;11.48;;;;;;;6.23;100.00;99547.34;5341147;27;20036;-80
2022/09/28 04:03:54;;;;;;;14.82;11.05;;;;;;;6.27;100.00;99551.38;5321819;27;1096188;-80
2022/09/28 04:06:25;;;;;;;16.45;10.73;;;;;;;6.43;100.00;99563.97;5337963;27;20120;-80
2022/09/28 04:08:57;;;;;;;18.15;10.43;;;;;;;6.34;100.00;99555.09;5338134;27;20257;-80
2022/09/28 04:11:28;;;;;;;17.50;10.35;;;;;;;6.35;100.00;99556.78;5340417;27;20051;-80
2022/09/28 04:14:00;;;;;;;14.98;9.68;;;;;;;6.37;100.00;99560.09;5338321;27;20055;-80
2022/09/28 04:16:31;;;;;;;14.15;9.98;;;;;;;6.40;100.00;99564.28;5339633;27;20107;-80
2022/09/28 04:19:03;;;;;;;14.02;9.27;;;;;;;6.37;100.00;99559.28;5339193;27;20047;-80
2022/09/28 04:21:35;;;;;;;15.70;9.27;;;;;;;6.41;100.00;99558.81;5347015;27;20036;-80
2022/09/28 04:24:08;;;;;;;11.45;7.90;;;;;;;6.46;100.00;99561.03;5336215;27;20055;-80
2022/09/28 04:26:39;;;;;;;10.65;7.32;;;;;;;6.46;100.00;99554.91;5342222;27;20028;-80
2022/09/28 04:29:14;;;;;;;8.50;6.75;;;;;;;6.57;100.00;99555.56;5322183;27;20386;-80
2022/09/28 04:31:51;;;;;;;9.52;6.72;;;;;;;6.59;100.00;99550.94;5342243;27;20074;-80
2022/09/28 04:34:22;;;;;;;10.70;7.00;;;;;;;6.50;100.00;99546.50;5341289;27;20437;-81
2022/09/28 04:36:55;;;;;;;10.45;6.10;;;;;;;6.49;100.00;99542.22;5345548;27;20097;-79
2022/09/28 04:39:26;;;;;;;11.52;6.88;;;;;;;6.49;100.00;99536.91;5337508;27;20047;-79
2022/09/28 04:41:57;;;;;;;11.23;6.32;;;;;;;6.58;100.00;99538.66;5345628;27;20032;-80
2022/09/28 04:44:28;;;;;;;8.10;6.20;;;;;;;6.59;100.00;99547.44;5343644;27;20023;-80
2022/09/28 04:47:00;;;;;;;10.68;6.28;;;;;;;6.80;100.00;99555.13;5340155;27;20034;-80
2022/09/28 04:49:34;;;;;;;9.20;6.40;;;;;;;6.67;100.00;99554.66;5322960;27;20868;-80
2022/09/28 04:52:05;;;;;;;8.07;5.97;;;;;;;6.54;100.00;99555.84;5343889;27;20110;-80
2022/09/28 04:54:37;;;;;;;12.18;6.95;;;;;;;6.49;100.00;99558.09;5339508;27;20420;-80
2022/09/28 04:57:08;;;;;;;10.88;6.32;;;;;;;6.33;100.00;99548.16;5340259;27;20111;-80
2022/09/28 04:59:39;;;;;;;7.93;5.82;;;;;;;6.66;100.00;99572.34;5339299;27;20028;-80
2022/09/28 05:02:13;;;;;;;10.25;5.50;;;;;;;6.20;100.00;99563.53;5342865;27;20024;-80
2022/09/28 05:04:45;;;;;;;7.60;5.35;;;;;;;6.32;100.00;99575.59;5340718;27;20146;-80
2022/09/28 05:07:16;;;;;;;9.95;6.00;;;;;;;6.10;100.00;99570.66;5340657;27;20031;-80
2022/09/28 05:09:47;;;;;;;9.70;4.93;;;;;;;6.09;100.00;99567.19;5342062;27;20028;-80
2022/09/28 05:12:20;;;;;;;12.85;5.45;;;;;;;5.96;100.00;99567.53;5342898;27;20895;-80
2022/09/28 05:14:51;;;;;;;10.80;5.95;;;;;;;5.99;100.00;99571.69;5335325;27;20027;-80
2022/09/28 05:17:22;;;;;;;8.13;5.93;;;;;;;6.31;100.00;99571.31;5323371;27;20016;-80
2022/09/28 05:19:54;;;;;;;19.75;7.13;;;;;;;6.27;100.00;99569.06;5323169;27;20169;-80
2022/09/28 05:22:25;;;;;;;8.88;6.10;;;;;;;6.30;100.00;99577.56;5321928;27;20032;-80
2022/09/28 05:24:57;;;;;;;8.85;6.10;;;;;;;6.32;100.00;99564.19;5320431;27;21361;-80
2022/09/28 05:27:29;;;;;;;11.20;6.85;;;;;;;6.63;100.00;99581.44;5339336;27;20039;-80
2022/09/28 05:30:00;;;;;;;8.20;7.15;;;;;;;6.89;100.00;99578.09;5339647;27;20500;-80
2022/09/28 05:32:31;;;;;;;11.00;7.50;;;;;;;7.09;100.00;99573.47;5338079;27;20442;-81
2022/09/28 05:35:05;;;;;;;12.55;9.40;;;;;;;6.93;100.00;99581.28;5341063;27;20020;-80
2022/09/28 05:37:37;;;;;;;13.98;9.40;;;;;;;6.65;100.00;99573.34;5341464;27;20023;-81
2022/09/28 05:40:09;;;;;;;13.57;9.52;;;;;;;6.52;100.00;99568.41;5342021;27;20028;-80
2022/09/28 05:42:41;;;;;;;11.57;8.55;;;;;;;7.12;100.00;99564.41;5327089;27;20224;-80
2022/09/28 05:45:12;;;;;;;15.90;11.50;;;;;;;6.92;100.00;99564.53;5345069;27;20035;-80
2022/09/28 05:47:45;;;;;;;12.70;10.30;;;;;;;6.64;100.00;99574.31;5345211;27;20024;-81
2022/09/28 05:50:16;;;;;;;16.77;11.32;;;;;;;6.41;100.00;99571.25;5346109;27;32345;-80
2022/09/28 05:52:58;;;;;;;15.07;11.63;;;;;;;6.46;100.00;99574.28;5335041;27;20093;-81
2022/09/28 05:55:30;;;;;;;16.25;11.70;;;;;;;6.41;100.00;99581.84;5341200;27;20438;-81
2022/09/28 05:58:04;;;;;;;16.02;11.30;;;;;;;6.56;100.00;99580.38;5344396;27;20015;-81
2022/09/28 06:00:36;;;;;;;20.65;12.93;;;;;;;6.50;100.00;99580.13;5340022;27;20365;-81
2022/09/28 06:03:11;;;;;;;17.50;13.10;;;;;;;6.36;100.00;99581.44;5345261;27;20051;-81
2022/09/28 06:05:42;;;;;;;19.02;13.55;;;;;;;6.24;100.00;99567.53;5334873;27;20517;-80
2022/09/28 06:08:14;;;;;;;20.77;14.07;;;;;;;6.28;100.00;99584.81;5343115;27;20058;-80
2022/09/28 06:10:46;;;;;;;23.88;14.90;;;;;;;6.12;100.00;99585.44;5337821;27;20024;-81
2022/09/28 06:13:18;;;;;;;21.20;14.45;;;;;;;6.15;100.00;99585.13;5341769;27;20161;-81
2022/09/28 06:15:49;;;;;;;24.02;15.27;;;;;;;6.04;100.00;99586.13;5337444;27;20027;-80
2022/09/28 06:18:20;;;;;;;22.45;15.88;;;;;;;6.14;100.00;99599.38;5341282;27;20028;-80
2022/09/28 06:20:52;;;;;;;21.35;15.15;;;;;;;6.21;100.00;99596.97;5345014;27;20022;-81
2022/09/28 06:23:23;;;;;;;22.75;15.55;;;;;;;6.17;100.00;99596.44;5345956;27;20089;-81
2022/09/28 06:25:54;;;;;;;27.38;17.08;;;;;;;6.18;100.00;99594.59;5338761;27;20111;-80
2022/09/28 06:28:26;;;;;;;23.10;16.92;;;;;;;6.46;100.00;99603.41;5319226;27;20036;-81
2022/09/28 06:30:59;;;;;;;53.78;23.08;;;;;;;6.75;100.00;99600.63;5324339;28;20493;-80
2022/09/28 06:33:31;;;;;;;167.88;33.45;;;;;;;7.06;100.00;99600.28;5324871;28;20103;-81
2022/09/28 06:36:02;;;;;;;75.28;28.58;;;;;;;7.10;100.00;99604.34;5313058;27;20533;-81
2022/09/28 06:38:34;;;;;;;822.17;98.00;;;;;;;7.96;100.00;99608.19;5346208;27;20020;-81
2022/09/28 06:41:05;;;;;;;934.50;105.15;;;;;;;8.12;100.00;99608.31;5345737;27;20023;-81
2022/09/28 06:43:38;;;;;;;963.65;92.75;;;;;;;8.63;100.00;99612.91;5345945;27;20024;-81
2022/09/28 06:46:09;;;;;;;470.90;57.28;;;;;;;8.35;100.00;99620.22;5347830;27;20031;-81
2022/09/28 06:48:41;;;;;;;514.00;64.20;;;;;;;8.74;100.00;99619.75;5349491;27;20024;-81
2022/09/28 06:51:12;;;;;;;1393.85;136.27;;;;;;;9.04;100.00;99615.69;5331176;27;20016;-81
2022/09/28 06:53:44;;;;;;;645.85;69.25;;;;;;;9.39;100.00;99630.56;5346058;27;20028;-81
2022/09/28 06:56:15;;;;;;;31.77;21.48;;;;;;;9.44;100.00;99624.75;5313732;27;20054;-81
2022/09/28 06:58:47;;;;;;;33.47;18.83;;;;;;;9.26;100.00;99625.72;5327511;28;20040;-81
2022/09/28 07:01:18;;;;;;;19.58;16.13;;;;;;;9.69;100.00;99630.91;5321554;28;20028;-81
2022/09/28 07:03:49;;;;;;;455.60;47.13;;;;;;;9.61;100.00;99625.59;5327033;28;20116;-81
2022/09/28 07:06:23;;;;;;;12.23;10.88;;;;;;;10.18;100.00;99628.22;5318349;27;20035;-81
2022/09/28 07:08:54;;;;;;;12.18;10.52;;;;;;;10.46;100.00;99637.69;5348352;27;20032;-81
2022/09/28 07:11:26;;;;;;;9.25;8.23;;;;;;;10.54;100.00;99640.34;5349169;27;20073;-81
2022/09/28 07:13:57;;;;;;;10.48;7.30;;;;;;;10.52;100.00;99631.69;5329905;27;20024;-81
2022/09/28 07:16:28;;;;;;;8.50;6.30;;;;;;;9.98;100.00;99633.06;5348985;27;20077;-80
2022/09/28 07:19:00;;;;;;;11.30;6.72;;;;;;;9.57;100.00;99641.09;5347680;27;32022;-81
2022/09/28 07:21:31;;;;;;;10.98;8.15;;;;;;;10.37;100.00;99635.03;5349135;27;20039;-80
2022/09/28 07:24:04;;;;;;;19.17;8.60;;;;;;;10.83;100.00;99642.38;5349023;27;20012;-80
2022/09/28 07:26:35;;;;;;;8.40;5.80;;;;;;;11.25;100.00;99648.34;5340243;27;20039;-81
2022/09/28 07:29:07;;;;;;;8.75;6.00;;;;;;;12.03;100.00;99646.47;5349054;27;20024;-81
2022/09/28 07:31:39;;;;;;;8.43;5.10;;;;;;;11.88;100.00;99641.88;5349598;27;20030;-80
2022/09/28 07:34:10;;;;;;;7.28;4.50;;;;;;;12.35;100.00;99636.47;5349070;27;20055;-80
2022/09/28 07:36:41;;;;;;;11.27;5.20;;;;;;;12.06;100.00;99643.41;5347444;27;20096;-81
2022/09/28 07:39:13;;;;;;;5.78;4.60;;;;;;;12.78;100.00;99637.47;5349197;27;20027;-81
2022/09/28 07:41:44;;;;;;;6.70;3.88;;;;;;;13.01;100.00;99637.34;5349033;27;20024;-81
2022/09/28 07:44:17;;;;;;;7.03;3.85;;;;;;;13.16;100.00;99629.28;5315719;28;20024;-81
2022/09/28 07:46:49;;;;;;;4.72;3.70;;;;;;;13.01;100.00;99623.16;5316638;27;20044;-81
2022/09/28 07:49:21;;;;;;;7.05;3.25;;;;;;;13.06;100.00;99631.44;5327538;28;20390;-81
2022/09/28 07:51:53;;;;;;;3.38;3.05;;;;;;;13.20;100.00;99629.72;5328072;28;20012;-81
2022/09/28 07:54:24;;;;;;;3.85;2.97;;;;;;;13.32;100.00;99636.28;5327942;28;20083;-81
2022/09/28 07:56:56;;;;;;;7.80;3.08;;;;;;;13.77;100.00;99638.78;5337831;27;20055;-80
2022/09/28 07:59:27;;;;;;;4.97;2.95;;;;;;;14.17;100.00;99639.09;5348684;27;20094;-80
2022/09/28 08:01:58;;;;;;;4.78;2.70;;;;;;;14.02;100.00;99641.88;5348554;27;20130;-81
2022/09/28 08:04:30;;;;;;;6.38;2.95;;;;;;;14.34;100.00;99623.53;5348495;27;20070;-81
2022/09/28 08:07:01;;;;;;;6.57;3.40;;;;;;;14.06;100.00;99634.25;5347818;27;20024;-80
2022/09/28 08:09:34;;;;;;;6.82;3.03;;;;;;;14.85;100.00;99631.28;5348477;27;20019;-81
2022/09/28 08:12:06;;;;;;;5.68;3.03;;;;;;;15.83;100.00;99638.16;5348021;27;20383;-81
2022/09/28 08:14:38;;;;;;;7.10;2.72;;;;;;;15.88;100.00;99635.66;5348255;27;20554;-81
2022/09/28 08:17:09;;;;;;;4.88;2.53;;;;;;;16.63;100.00;99640.75;5336779;27;20107;-81
2022/09/28 08:22:31;;;;;;;5.65;3.05;;;;;;;16.48;100.00;99648.25;5347871;27;20110;-81
2022/09/28 08:25:02;;;;;;;4.13;2.63;;;;;;;16.64;100.00;99643.25;5348294;27;20111;-81
2022/09/28 08:27:33;;;;;;;4.55;2.25;;;;;;;17.94;100.00;99649.47;5328197;27;20035;-81
2022/09/28 08:30:05;;;;;;;8.55;3.00;;;;;;;18.10;100.00;99656.19;5347758;27;20470;-81
2022/09/28 08:32:37;;;;;;;3.63;2.50;;;;;;;18.69;100.00;99652.06;5348171;27;20091;-81
2022/09/28 08:35:08;;;;;;;6.22;3.00;;;;;;;19.58;100.00;99657.00;5348614;27;20091;-81
2022/09/28 08:37:40;;;;;;;6.45;2.50;;;;;;;19.37;100.00;99657.50;5347255;27;20030;-81
2022/09/28 08:40:17;;;;;;;6.75;2.28;;;;;;;19.96;100.00;99657.72;5347785;27;20028;-81
2022/09/28 08:42:50;;;;;;;5.00;2.30;;;;;;;19.98;100.00;99664.53;5347389;27;20063;-81
2022/09/28 08:45:27;;;;;;;5.43;2.20;;;;;;;20.78;100.00;99673.16;5347699;27;20027;-81
2022/09/28 08:48:46;;;;;;;4.38;2.25;;;;;;;20.13;100.00;99674.09;5346357;27;20028;-81
2022/09/28 08:51:29;;;;;;;4.25;1.77;;;;;;;19.30;100.00;99673.81;5339512;27;20044;-81
2022/09/28 08:54:30;;;;;;;4.28;2.72;;;;;;;19.98;100.00;99661.81;5342354;27;20020;-81
2022/09/28 08:57:23;;;;;;;4.60;2.20;;;;;;;21.16;100.00;99671.78;5337361;27;20028;-81
2022/09/28 08:59:57;;;;;;;5.10;2.50;;;;;;;22.02;100.00;99677.19;5346645;27;20472;-81
2022/09/28 09:02:38;;;;;;;3.88;2.00;;;;;;;21.56;100.00;99670.94;5346895;27;20036;-81
2022/09/28 09:05:13;;;;;;;5.20;2.03;;;;;;;21.26;100.00;99674.69;5346444;27;20119;-81
2022/09/28 09:08:21;;;;;;;3.25;2.00;;;;;;;21.99;100.00;99679.56;5345796;27;20028;-81
2022/09/28 09:11:19;;;;;;;2.95;2.00;;;;;;;20.61;100.00;99677.63;5347221;27;20069;-81
2022/09/28 09:14:26;;;;;;;3.83;2.33;;;;;;;20.82;100.00;99690.59;5328375;27;20046;-81
2022/09/28 09:17:21;;;;;;;3.20;2.13;;;;;;;21.98;100.00;99691.47;5346448;27;20028;-80
2022/09/28 09:20:00;;;;;;;3.97;1.95;;;;;;;20.38;100.00;99687.41;5346208;27;20043;-81
2022/09/28 09:22:39;;;;;;;4.53;2.45;;;;;;;21.27;100.00;99689.91;5346910;27;20114;-81
2022/09/28 09:25:24;;;;;;;4.57;2.00;;;;;;;22.66;100.00;99687.66;5328265;27;20034;-80
2022/09/28 09:28:16;;;;;;;6.05;2.17;;;;;;;23.94;100.00;99693.00;5345851;27;20027;-80
2022/09/28 09:30:47;;;;;;;2.80;1.75;;;;;;;21.90;100.00;99698.97;5346942;27;20392;-81
2022/09/28 09:33:41;;;;;;;6.45;1.63;;;;;;;21.94;100.00;99693.88;5346878;27;20106;-81
2022/09/28 09:36:31;;;;;;;3.42;1.50;;;;;;;22.27;100.00;99701.22;5344366;27;20020;-81
2022/09/28 09:39:50;;;;;;;5.85;1.98;;;;;;;22.20;100.00;99700.53;5325132;28;20030;-80
2022/09/28 09:42:30;;;;;;;5.68;1.60;;;;;;;22.31;100.00;99708.88;5242090;28;20127;-80
2022/09/28 09:45:20;;;;;;;5.40;1.80;;;;;;;23.67;100.00;99703.91;5330375;27;20054;-81
2022/09/28 09:48:13;;;;;;;4.28;2.00;;;;;;;24.47;100.00;99704.03;5322815;27;20077;-81
2022/09/28 09:50:54;;;;;;;4.25;1.75;;;;;;;24.44;100.00;99701.81;5324596;28;20016;-81
2022/09/28 09:53:47;;;;;;;6.18;1.83;;;;;;;24.42;100.00;99706.72;5324753;28;20024;-81
2022/09/28 09:56:27;;;;;;;2.88;1.60;;;;;;;23.62;100.00;99706.56;5327546;27;20024;-81
2022/09/28 09:59:05;;;;;;;6.68;1.80;;;;;;;24.13;94.65;99705.16;5346611;27;20020;-81
2022/09/28 10:01:39;;;;;;;4.95;1.60;;;;;;;23.17;100.00;99697.59;5346274;27;20157;-81
2022/09/28 10:04:21;;;;;;;5.70;1.80;;;;;;;23.24;100.00;99706.41;5346771;27;20040;-81
2022/09/28 10:07:00;;;;;;;5.68;1.90;;;;;;;24.63;100.00;99699.53;5345431;27;20039;-81
2022/09/28 10:09:40;;;;;;;3.97;1.70;;;;;;;24.33;100.00;99701.78;5346411;27;20018;-81
2022/09/28 10:12:16;;;;;;;4.22;1.52;;;;;;;24.04;94.00;99703.19;5346835;27;20025;-80
2022/09/28 10:14:49;;;;;;;4.93;1.90;;;;;;;23.93;96.48;99704.97;5346051;27;20022;-80
2022/09/28 10:17:26;;;;;;;4.60;1.90;;;;;;;22.37;100.00;99700.56;5323498;27;20119;-80
2022/09/28 10:19:57;;;;;;;4.20;1.63;;;;;;;21.39;100.00;99700.72;5326733;28;20035;-80
2022/09/28 10:22:30;;;;;;;3.88;1.50;;;;;;;21.15;100.00;99699.94;5328364;28;20111;-81
2022/09/28 10:25:04;;;;;;;2.85;1.80;;;;;;;22.02;100.00;99696.19;5309898;28;20024;-80
2022/09/28 10:27:44;;;;;;;5.22;1.73;;;;;;;21.08;100.00;99702.78;5340547;27;20026;-80
2022/09/28 10:30:24;;;;;;;4.18;2.00;;;;;;;21.44;100.00;99703.53;5349286;27;20031;-80
2022/09/28 10:32:58;;;;;;;4.85;1.90;;;;;;;20.58;100.00;99695.16;5349017;27;20035;-80
2022/09/28 10:35:41;;;;;;;3.88;1.63;;;;;;;19.03;100.00;99695.75;5349594;27;20108;-80
2022/09/28 10:38:18;;;;;;;4.45;1.88;;;;;;;18.73;100.00;99697.53;5348269;27;20084;-80
2022/09/28 10:40:55;;;;;;;4.50;2.38;;;;;;;17.66;100.00;99693.00;5349328;27;20053;-80
2022/09/28 10:43:37;;;;;;;5.57;2.10;;;;;;;17.15;100.00;99695.50;5349619;27;20417;-80
2022/09/28 10:46:11;;;;;;;4.65;2.30;;;;;;;16.69;100.00;99687.53;5330530;27;20016;-80
2022/09/28 10:48:57;;;;;;;3.63;2.30;;;;;;;16.52;100.00;99697.94;5348944;27;20024;-79
2022/09/28 10:51:45;;;;;;;4.03;1.90;;;;;;;16.39;100.00;99690.69;5349314;27;20401;-79
2022/09/28 10:54:20;;;;;;;7.90;2.72;;;;;;;17.52;100.00;99690.38;5349234;27;20019;-80
2022/09/28 10:56:53;;;;;;;4.70;2.00;;;;;;;20.22;100.00;99694.34;5348868;27;20016;-80
2022/09/28 10:59:28;;;;;;;3.03;1.30;;;;;;;21.80;100.00;99690.63;5349694;27;20039;-80
2022/09/28 11:02:31;;;;;;;4.10;1.63;;;;;;;24.02;100.00;99695.25;5349035;27;20039;-80
2022/09/28 11:05:06;;;;;;;3.20;1.65;;;;;;;24.69;100.00;99693.84;5348860;27;20069;-80
2022/09/28 11:07:45;;;;;;;2.28;1.45;;;;;;;26.62;100.00;99690.19;5338794;27;20039;-80
2022/09/28 11:10:36;;;;;;;2.88;1.58;;;;;;;29.33;89.14;99692.00;5327830;28;20355;-80
2022/09/28 11:13:08;;;;;;;3.42;1.30;;;;;;;28.88;59.94;99698.88;5327379;28;20445;-81
2022/09/28 11:15:42;;;;;;;2.67;1.08;;;;;;;26.89;58.98;99697.22;5327993;28;20023;-80
2022/09/28 11:18:30;;;;;;;2.60;1.10;;;;;;;24.54;100.00;99693.75;5343182;27;20036;-80
2022/09/28 11:21:16;;;;;;;2.03;1.10;;;;;;;22.51;100.00;99697.50;5349076;27;20628;-79
2022/09/28 11:24:04;;;;;;;3.65;0.80;;;;;;;21.35;100.00;99691.38;5348470;27;20038;-80
2022/09/28 11:26:41;;;;;;;1.90;0.65;;;;;;;20.43;100.00;99692.94;5329692;27;20011;-79
2022/09/28 11:29:19;;;;;;;3.00;1.00;;;;;;;19.51;100.00;99685.19;5328372;27;20031;-79
2022/09/28 11:31:51;;;;;;;2.17;1.10;;;;;;;18.75;100.00;99688.16;5349056;27;20016;-79
2022/09/28 11:34:30;;;;;;;5.45;1.15;;;;;;;18.29;100.00;99692.16;5349736;27;20477;-79
2022/09/28 11:37:23;;;;;;;2.13;1.20;;;;;;;18.01;100.00;99689.88;5348434;27;20031;-79
2022/09/28 11:40:14;;;;;;;4.18;1.20;;;;;;;17.58;100.00;99688.66;5348248;27;20022;-80
2022/09/28 11:43:05;;;;;;;5.32;1.85;;;;;;;16.72;100.00;99685.25;5347949;27;20031;-80
2022/09/28 11:45:50;;;;;;;2.70;1.45;;;;;;;18.94;100.00;99686.31;5348624;27;20089;-80
2022/09/28 11:48:27;;;;;;;3.35;1.30;;;;;;;21.79;100.00;99686.28;5348240;27;20028;-80
2022/09/28 11:51:03;;;;;;;4.40;1.20;;;;;;;24.45;100.00;99685.22;5348333;27;20016;-81
2022/09/28 11:53:53;;;;;;;5.65;1.33;;;;;;;25.57;100.00;99680.59;5348365;27;20024;-81
2022/09/28 11:56:38;;;;;;;2.97;1.08;;;;;;;22.46;100.00;99684.69;5329282;27;20077;-81
2022/09/28 11:59:16;;;;;;;3.10;1.60;;;;;;;21.60;100.00;99682.97;5347899;27;20028;-81
2022/09/28 12:01:51;;;;;;;3.42;1.60;;;;;;;21.82;100.00;99684.97;5347925;27;20032;-80
2022/09/28 12:04:36;;;;;;;5.03;1.40;;;;;;;25.06;100.00;99683.94;5347932;27;20059;-81
2022/09/28 12:07:24;;;;;;;4.93;1.25;;;;;;;24.60;100.00;99679.09;5347568;27;20031;-81
2022/09/28 12:10:07;;;;;;;3.67;1.25;;;;;;;22.13;100.00;99686.31;5348100;27;20023;-80
2022/09/28 12:12:46;;;;;;;5.05;1.40;;;;;;;20.19;100.00;99678.56;5347845;27;20016;-80